Time;durP1;ratioP1;P1;durP2;ratioP2;P2;SDS_P1;SDS_P2;PMS_P1;PMS_P2;Temp;Humidity;BMP_temperature;BMP_pressure;BME280_temperature;BME280_humidity;BME280_pressure;Samples;Min_cycle;Max_cycle;Signal;HPM_P1;HPM_P2
2023/08/12 00:00:30;;;;;;;8.30;4.40;;;512.90;2380.80;;;;;;5038575;28;20141;-70
2023/08/12 00:02:56;;;;;;;7.70;4.53;;;512.80;2380.80;;;;;;5029142;28;20037;-71
2023/08/12 00:05:22;;;;;;;9.35;4.35;;;512.70;2380.80;;;;;;5037416;28;20072;-71
2023/08/12 00:07:48;;;;;;;8.82;4.20;;;512.60;2380.80;;;;;;5031346;28;20029;-71
2023/08/12 00:10:14;;;;;;;9.00;4.68;;;512.40;2380.80;;;;;;5038145;28;20018;-71
2023/08/12 00:12:40;;;;;;;10.70;5.15;;;512.40;2380.80;;;;;;5030399;28;20412;-70
2023/08/12 00:15:08;;;;;;;8.23;4.20;;;512.30;2380.80;;;;;;5038532;28;20498;-71
2023/08/12 00:17:35;;;;;;;9.18;4.95;;;512.30;2380.80;;;;;;5037139;28;20116;-71
2023/08/12 00:20:05;;;;;;;9.73;4.82;;;512.30;2380.80;;;;;;5032146;28;20036;-71
2023/08/12 00:22:31;;;;;;;6.53;4.65;;;512.50;2380.80;;;;;;5031757;28;20045;-75
2023/08/12 00:24:56;;;;;;;8.93;4.78;;;512.50;2380.80;;;;;;5033372;28;20068;-74
2023/08/12 00:27:22;;;;;;;8.63;4.18;;;512.50;2380.80;;;;;;5030005;28;20029;-71
2023/08/12 00:29:48;;;;;;;11.27;4.90;;;512.50;2380.80;;;;;;5033084;28;20060;-76
2023/08/12 00:32:14;;;;;;;8.10;4.72;;;512.50;2380.80;;;;;;5032420;28;20030;-76
2023/08/12 00:34:40;;;;;;;7.40;5.18;;;512.50;2380.80;;;;;;5033243;28;20033;-71
2023/08/12 00:37:05;;;;;;;12.68;5.32;;;512.30;2380.80;;;;;;5032942;28;20144;-71
2023/08/12 00:39:31;;;;;;;10.45;4.97;;;512.20;2380.80;;;;;;5033011;28;20030;-74
2023/08/12 00:41:57;;;;;;;8.35;5.10;;;512.20;2380.80;;;;;;5032787;28;20026;-70
2023/08/12 00:44:22;;;;;;;11.40;5.07;;;512.30;2380.80;;;;;;5032917;28;20497;-75
2023/08/12 00:46:49;;;;;;;11.15;4.60;;;512.10;2380.80;;;;;;5032658;28;20025;-72
2023/08/12 00:49:15;;;;;;;9.32;4.53;;;512.00;2380.80;;;;;;5032919;28;20060;-71
2023/08/12 00:51:43;;;;;;;7.15;4.82;;;512.00;2380.80;;;;;;5032791;28;20064;-72
2023/08/12 00:54:15;;;;;;;8.70;4.90;;;512.00;2380.80;;;;;;5032842;28;20030;-71
2023/08/12 00:56:41;;;;;;;9.23;5.13;;;487.30;2380.80;;;;;;5043246;28;20032;-71
2023/08/12 00:59:11;;;;;;;8.32;5.45;;;512.00;2380.80;;;;;;5053021;28;20031;-70
2023/08/12 01:01:41;;;;;;;9.02;4.40;;;487.30;2380.80;;;;;;5042765;28;20025;-71
2023/08/12 01:04:07;;;;;;;10.43;5.53;;;487.30;2380.80;;;;;;5032214;28;20487;-71
2023/08/12 01:06:33;;;;;;;8.90;5.13;;;487.20;2380.80;;;;;;5036151;28;20382;-71
2023/08/12 01:09:00;;;;;;;8.45;5.65;;;487.20;2380.80;;;;;;5036652;28;20104;-71
2023/08/12 01:11:51;;;;;;;10.50;5.70;;;487.20;2380.80;;;;;;5036419;28;20017;-71
2023/08/12 01:14:48;;;;;;;7.55;5.22;;;487.10;2380.80;;;;;;5036000;28;20025;-70
2023/08/12 01:17:15;;;;;;;7.57;5.30;;;487.00;2380.80;;;;;;5033821;28;20030;-71
2023/08/12 01:19:43;;;;;;;9.07;5.30;;;487.00;2380.80;;;;;;5034246;28;20442;-70
2023/08/12 01:22:11;;;;;;;9.95;5.07;;;487.10;2380.80;;;;;;5033746;28;20038;-70
2023/08/12 01:24:41;;;;;;;7.43;5.28;;;487.10;2380.80;;;;;;5034092;28;20029;-71
2023/08/12 01:27:09;;;;;;;10.82;6.13;;;487.00;2380.80;;;;;;5034024;28;20079;-70
2023/08/12 01:29:38;;;;;;;9.45;5.55;;;487.00;2380.80;;;;;;5034175;28;20022;-70
2023/08/12 01:32:38;;;;;;;12.15;5.88;;;487.00;2380.80;;;;;;5033533;28;20065;-73
2023/08/12 01:35:20;;;;;;;9.35;6.07;;;486.80;2380.80;;;;;;5033959;28;20033;-70
2023/08/12 01:37:49;;;;;;;9.07;5.88;;;486.80;2380.80;;;;;;5033909;28;20029;-70
2023/08/12 01:40:17;;;;;;;12.02;5.25;;;486.70;2380.80;;;;;;5033629;28;20056;-71
2023/08/12 01:42:43;;;;;;;9.88;5.63;;;486.70;2380.80;;;;;;5033790;28;20112;-70
2023/08/12 01:45:09;;;;;;;7.65;5.30;;;486.70;2380.80;;;;;;5033574;28;20026;-70
2023/08/12 01:47:34;;;;;;;7.38;5.25;;;486.70;2380.80;;;;;;5033585;28;20092;-71
2023/08/12 01:50:00;;;;;;;10.07;6.18;;;486.60;2380.80;;;;;;5033592;28;20037;-74
2023/08/12 01:52:26;;;;;;;8.70;5.28;;;486.60;2380.80;;;;;;5033670;28;20498;-75
2023/08/12 01:54:52;;;;;;;15.52;6.28;;;486.50;2380.80;;;;;;5032701;28;20112;-70
2023/08/12 01:57:17;;;;;;;12.35;5.45;;;486.50;2380.80;;;;;;5035516;28;20382;-71
2023/08/12 01:59:46;;;;;;;9.55;5.20;;;461.70;2380.80;;;;;;5035748;28;20028;-70
2023/08/12 02:02:12;;;;;;;8.63;5.50;;;461.70;2380.80;;;;;;5035422;28;20445;-70
2023/08/12 02:04:39;;;;;;;7.55;5.00;;;461.70;2380.80;;;;;;5034941;28;20100;-70
2023/08/12 02:07:05;;;;;;;8.52;5.85;;;461.70;2380.80;;;;;;5035591;28;20104;-70
2023/08/12 02:09:31;;;;;;;12.98;5.57;;;461.60;2380.80;;;;;;5035536;28;20498;-71
2023/08/12 02:11:57;;;;;;;10.70;6.05;;;461.50;2380.80;;;;;;5035580;28;20029;-75
2023/08/12 02:14:22;;;;;;;11.60;6.35;;;461.50;2380.80;;;;;;5034979;28;20026;-70
2023/08/12 02:16:48;;;;;;;13.20;5.90;;;461.50;2380.80;;;;;;5035042;28;20033;-74
2023/08/12 02:19:14;;;;;;;10.82;5.60;;;461.60;2380.80;;;;;;5034921;28;20029;-70
2023/08/12 02:21:40;;;;;;;13.15;6.15;;;461.70;2380.80;;;;;;5035334;28;20084;-72
2023/08/12 02:24:07;;;;;;;9.25;6.25;;;461.70;2380.80;;;;;;5035041;28;20064;-71
2023/08/12 02:26:32;;;;;;;10.70;6.10;;;461.50;2380.80;;;;;;5034983;28;20075;-70
2023/08/12 02:28:58;;;;;;;11.75;6.47;;;461.60;2380.80;;;;;;5034711;28;20033;-71
2023/08/12 02:31:24;;;;;;;9.32;5.80;;;461.60;2380.80;;;;;;5034864;28;21344;-71
2023/08/12 02:33:49;;;;;;;14.65;6.25;;;461.70;2380.80;;;;;;5034622;28;20049;-73
2023/08/12 02:36:15;;;;;;;12.77;6.45;;;461.60;2380.80;;;;;;5034816;28;20025;-72
2023/08/12 02:38:41;;;;;;;9.93;6.70;;;461.70;2380.80;;;;;;5034491;28;20065;-73
2023/08/12 02:41:07;;;;;;;15.13;7.18;;;486.40;2380.80;;;;;;5034975;28;20450;-75
2023/08/12 02:43:32;;;;;;;13.05;7.05;;;486.50;2380.80;;;;;;5034740;28;20125;-70
2023/08/12 02:45:58;;;;;;;17.80;7.20;;;486.50;2380.80;;;;;;5034950;28;20021;-71
2023/08/12 02:48:24;;;;;;;15.15;8.13;;;486.50;2380.80;;;;;;5034567;28;20506;-70
2023/08/12 02:50:49;;;;;;;12.30;7.78;;;486.50;2380.80;;;;;;5034521;28;20063;-71
2023/08/12 02:53:15;;;;;;;15.63;8.38;;;486.60;2380.80;;;;;;5034300;28;20029;-71
2023/08/12 02:55:41;;;;;;;12.18;6.80;;;486.60;2380.80;;;;;;5034530;28;20033;-71
2023/08/12 02:58:07;;;;;;;14.18;7.05;;;486.60;2380.80;;;;;;5034442;28;20022;-70
2023/08/12 03:00:33;;;;;;;15.65;7.78;;;486.60;2380.80;;;;;;5034441;28;20026;-73
2023/08/12 03:02:58;;;;;;;17.65;7.70;;;486.60;2380.80;;;;;;5033768;28;20125;-71
2023/08/12 03:05:24;;;;;;;14.18;8.32;;;486.50;2380.80;;;;;;5034418;28;20057;-70
2023/08/12 03:07:51;;;;;;;12.35;7.20;;;486.50;2380.80;;;;;;5032620;28;20105;-72
2023/08/12 03:10:18;;;;;;;10.00;7.32;;;486.50;2380.80;;;;;;5022649;28;20105;-74
2023/08/12 03:12:44;;;;;;;15.50;7.32;;;461.70;2380.80;;;;;;5021294;28;20116;-75
2023/08/12 03:15:10;;;;;;;8.68;6.55;;;461.70;2380.80;;;;;;5025231;28;20519;-71
2023/08/12 03:17:38;;;;;;;19.35;7.85;;;461.70;2380.80;;;;;;5027066;28;20105;-72
2023/08/12 03:20:08;;;;;;;16.65;7.82;;;461.70;2380.80;;;;;;5024064;28;20041;-69
2023/08/12 03:22:35;;;;;;;17.35;7.80;;;461.70;2380.80;;;;;;5020604;28;20486;-75
2023/08/12 03:25:01;;;;;;;12.52;6.80;;;461.40;2380.80;;;;;;5023071;28;20021;-71
2023/08/12 03:27:26;;;;;;;12.98;7.68;;;461.50;2380.80;;;;;;5013540;28;20030;-74
2023/08/12 03:29:52;;;;;;;13.10;7.47;;;461.50;2380.80;;;;;;5013048;28;20029;-71
2023/08/12 03:32:18;;;;;;;15.48;7.32;;;461.50;2380.80;;;;;;5031079;28;20028;-76
2023/08/12 03:34:43;;;;;;;14.38;7.07;;;461.60;2380.80;;;;;;5033778;28;20099;-70
2023/08/12 03:37:09;;;;;;;18.42;7.20;;;461.70;2380.80;;;;;;5033676;28;20021;-71
2023/08/12 03:39:35;;;;;;;10.80;7.10;;;486.40;2380.80;;;;;;5033706;28;20560;-71
2023/08/12 03:42:01;;;;;;;14.27;6.78;;;486.40;2380.80;;;;;;5033587;28;20029;-71
2023/08/12 03:44:26;;;;;;;13.68;7.32;;;486.40;2380.80;;;;;;5033505;28;20418;-70
2023/08/12 03:46:52;;;;;;;13.57;7.35;;;486.40;2380.80;;;;;;5033391;28;20025;-74
2023/08/12 03:49:18;;;;;;;13.05;6.93;;;486.40;2380.80;;;;;;5033573;28;20024;-72
2023/08/12 03:51:43;;;;;;;11.32;7.10;;;486.40;2380.80;;;;;;5033262;28;20065;-71
2023/08/12 03:54:09;;;;;;;11.57;6.60;;;486.50;2380.80;;;;;;5033314;28;20017;-71
2023/08/12 03:56:35;;;;;;;12.35;7.57;;;486.50;2380.80;;;;;;5033111;28;20021;-71
2023/08/12 03:59:00;;;;;;;9.50;6.28;;;486.50;2380.80;;;;;;5033325;28;20045;-71
2023/08/12 04:01:26;;;;;;;15.82;7.15;;;486.50;2380.80;;;;;;5033159;28;20394;-73
2023/08/12 04:03:53;;;;;;;13.10;6.50;;;486.50;2380.80;;;;;;5033165;28;20104;-71
2023/08/12 04:06:18;;;;;;;15.32;6.22;;;486.50;2380.80;;;;;;5033269;28;20537;-70
2023/08/12 04:08:44;;;;;;;14.65;6.40;;;486.50;2380.80;;;;;;5033235;28;20029;-71
2023/08/12 04:11:10;;;;;;;13.48;6.10;;;486.50;2380.80;;;;;;5032593;28;20223;-71
2023/08/12 04:13:35;;;;;;;11.13;6.18;;;486.60;2380.80;;;;;;5033336;28;20021;-75
2023/08/12 04:16:01;;;;;;;17.02;6.90;;;486.60;2380.80;;;;;;5033377;28;20033;-70
2023/08/12 04:18:27;;;;;;;8.75;6.68;;;486.60;2380.80;;;;;;5033210;28;20018;-71
2023/08/12 04:20:53;;;;;;;11.63;6.53;;;486.60;2380.80;;;;;;5033018;28;20036;-70
2023/08/12 04:23:19;;;;;;;17.95;6.65;;;486.70;2380.80;;;;;;5033062;28;20025;-72
2023/08/12 04:25:48;;;;;;;14.98;6.72;;;486.70;2380.80;;;;;;5033001;28;20025;-71
2023/08/12 04:28:15;;;;;;;9.43;6.40;;;486.70;2380.80;;;;;;5032722;28;20029;-72
2023/08/12 04:30:45;;;;;;;14.02;7.60;;;486.80;2380.80;;;;;;5033013;28;20025;-69
2023/08/12 04:33:11;;;;;;;14.32;6.47;;;486.80;2380.80;;;;;;5032767;28;20183;-75
2023/08/12 04:35:37;;;;;;;11.63;6.18;;;486.90;2380.80;;;;;;5032939;28;20028;-70
2023/08/12 04:38:03;;;;;;;11.40;6.82;;;486.90;2380.80;;;;;;5033481;28;20475;-71
2023/08/12 04:40:29;;;;;;;9.13;6.25;;;486.90;2380.80;;;;;;5036646;28;20045;-69
2023/08/12 04:42:55;;;;;;;11.98;6.93;;;486.80;2380.80;;;;;;5036785;28;20123;-70
2023/08/12 04:45:20;;;;;;;14.70;6.72;;;486.70;2380.80;;;;;;5036752;28;20029;-69
2023/08/12 04:47:46;;;;;;;14.32;7.65;;;486.60;2380.80;;;;;;5036880;28;20495;-75
2023/08/12 04:50:12;;;;;;;10.57;6.68;;;486.80;2380.80;;;;;;5036729;28;20014;-70
2023/08/12 04:52:37;;;;;;;13.38;7.18;;;486.80;2380.80;;;;;;5036728;28;20092;-70
2023/08/12 04:55:04;;;;;;;17.52;7.93;;;486.80;2380.80;;;;;;5030818;28;20052;-70
2023/08/12 04:57:30;;;;;;;12.23;8.50;;;487.00;2380.80;;;;;;5023758;28;20022;-69
2023/08/12 04:59:57;;;;;;;15.05;8.38;;;487.10;2380.80;;;;;;5028911;28;20095;-70
2023/08/12 05:02:22;;;;;;;14.77;8.90;;;487.10;2380.80;;;;;;5025706;28;20088;-70
2023/08/12 05:04:51;;;;;;;20.23;9.02;;;487.10;2380.80;;;;;;5025761;28;20037;-70
2023/08/12 05:07:17;;;;;;;12.70;8.60;;;487.10;2380.80;;;;;;5029206;28;20030;-72
2023/08/12 05:09:46;;;;;;;13.77;8.73;;;487.30;2380.80;;;;;;5027277;28;20025;-71
2023/08/12 05:12:12;;;;;;;13.90;8.55;;;487.20;2380.80;;;;;;5031112;28;20532;-70
2023/08/12 05:14:39;;;;;;;13.65;8.75;;;487.30;2380.80;;;;;;5029208;28;20037;-71
2023/08/12 05:17:05;;;;;;;21.20;8.63;;;487.30;2380.80;;;;;;5020553;28;20517;-70
2023/08/12 05:19:32;;;;;;;16.25;8.07;;;512.00;2380.80;;;;;;5019762;28;20025;-71
2023/08/12 05:21:57;;;;;;;12.70;8.25;;;512.10;2380.80;;;;;;5026658;28;20030;-70
2023/08/12 05:24:23;;;;;;;13.70;9.05;;;512.10;2380.80;;;;;;5025512;28;20095;-69
2023/08/12 05:26:49;;;;;;;17.27;10.43;;;512.10;2380.80;;;;;;5021246;28;20026;-73
2023/08/12 05:29:14;;;;;;;19.17;9.60;;;512.10;2380.80;;;;;;5027993;28;20482;-73
2023/08/12 05:31:40;;;;;;;15.73;9.25;;;512.20;2380.80;;;;;;5031777;28;20394;-74
2023/08/12 05:34:06;;;;;;;14.18;9.38;;;512.30;2380.80;;;;;;5019448;28;20045;-71
2023/08/12 05:36:32;;;;;;;15.55;9.68;;;512.50;2380.80;;;;;;5029759;28;20033;-70
2023/08/12 05:38:58;;;;;;;17.00;9.63;;;512.70;2380.80;;;;;;5025914;28;20040;-69
2023/08/12 05:41:24;;;;;;;13.40;9.70;;;512.80;2380.80;;;;;;5027455;28;20124;-71
2023/08/12 05:43:50;;;;;;;19.23;10.23;;;512.90;2380.80;;;;;;5024335;28;20120;-71
2023/08/12 05:46:15;;;;;;;13.60;9.57;;;537.60;2406.40;;;;;;5018462;28;20088;-71
2023/08/12 05:48:41;;;;;;;20.58;9.57;;;537.70;2406.40;;;;;;5027900;28;20037;-70
2023/08/12 05:51:07;;;;;;;17.70;10.40;;;537.80;2406.40;;;;;;5023308;28;20021;-72
2023/08/12 05:53:33;;;;;;;16.02;10.05;;;537.90;2406.40;;;;;;5025565;28;20029;-71
2023/08/12 05:55:59;;;;;;;17.15;10.75;;;538.00;2406.40;;;;;;5022119;28;20030;-71
2023/08/12 05:58:24;;;;;;;19.33;9.95;;;538.10;2406.40;;;;;;5027764;28;20036;-72
2023/08/12 06:00:50;;;;;;;14.82;9.82;;;538.20;2406.40;;;;;;5024521;28;20454;-70
2023/08/12 06:03:16;;;;;;;14.10;8.85;;;538.30;2406.40;;;;;;5022065;28;20041;-70
2023/08/12 06:05:45;;;;;;;13.15;9.27;;;538.40;2406.40;;;;;;5027738;28;20061;-71
2023/08/12 06:08:10;;;;;;;13.38;8.60;;;538.50;2406.40;;;;;;5021244;28;20033;-71
2023/08/12 06:10:36;;;;;;;14.20;8.88;;;563.20;2432.00;;;;;;5025201;28;20082;-71
2023/08/12 06:13:02;;;;;;;16.23;9.35;;;563.40;2432.00;;;;;;5025240;28;20373;-73
2023/08/12 06:15:28;;;;;;;13.88;8.00;;;563.60;2432.00;;;;;;5022811;28;20460;-72
2023/08/12 06:17:53;;;;;;;15.00;8.45;;;563.70;2432.00;;;;;;5026260;28;20025;-71
2023/08/12 06:20:19;;;;;;;18.48;8.68;;;563.80;2432.00;;;;;;5024716;28;20467;-71
2023/08/12 06:22:45;;;;;;;16.13;7.65;;;563.90;2432.00;;;;;;5020237;28;20096;-72
2023/08/12 06:25:10;;;;;;;11.68;6.40;;;564.00;2432.00;;;;;;5025887;28;20028;-72
2023/08/12 06:27:36;;;;;;;13.95;5.85;;;564.10;2432.00;;;;;;5020446;28;20029;-72
2023/08/12 06:30:02;;;;;;;11.32;6.15;;;589.00;2432.00;;;;;;5021900;28;20514;-71
2023/08/12 06:32:28;;;;;;;11.30;5.40;;;589.10;2432.00;;;;;;5019755;28;20064;-72
2023/08/12 06:34:53;;;;;;;16.98;7.63;;;589.20;2432.00;;;;;;5029097;28;20467;-73
2023/08/12 06:37:19;;;;;;;12.88;6.78;;;589.30;2432.00;;;;;;5024755;28;20044;-73
2023/08/12 06:39:45;;;;;;;12.48;6.05;;;589.40;2432.00;;;;;;5027232;28;20048;-74
2023/08/12 06:42:11;;;;;;;11.20;5.88;;;589.60;2432.00;;;;;;5031261;28;20103;-73
2023/08/12 06:44:37;;;;;;;8.88;6.10;;;589.70;2432.00;;;;;;5024541;28;20377;-74
2023/08/12 06:47:03;;;;;;;9.73;5.03;;;614.40;2432.00;;;;;;5024192;28;20489;-72
2023/08/12 06:49:29;;;;;;;16.08;5.68;;;614.60;2432.00;;;;;;5019745;28;20030;-72
2023/08/12 06:51:54;;;;;;;17.05;6.18;;;614.80;2432.00;;;;;;5026216;28;20057;-73
2023/08/12 06:54:22;;;;;;;8.45;4.97;;;614.90;2432.00;;;;;;5026370;28;20076;-74
2023/08/12 06:56:48;;;;;;;9.35;4.68;;;615.10;2432.00;;;;;;5016184;28;20075;-71
2023/08/12 06:59:14;;;;;;;10.90;4.63;;;615.20;2432.00;;;;;;5025827;28;20026;-72
2023/08/12 07:01:40;;;;;;;6.05;4.63;;;640.00;2432.00;;;;;;5022155;28;20111;-73
2023/08/12 07:04:05;;;;;;;8.60;5.07;;;640.00;2406.40;;;;;;5023729;28;20053;-73
2023/08/12 07:06:31;;;;;;;8.50;5.30;;;640.20;2380.80;;;;;;5024406;28;20034;-73
2023/08/12 07:08:57;;;;;;;10.05;4.30;;;640.40;2278.40;;;;;;5024029;28;20038;-72
2023/08/12 07:11:23;;;;;;;8.55;4.78;;;640.60;2227.20;;;;;;5022148;28;20049;-73
2023/08/12 07:13:49;;;;;;;7.80;4.72;;;640.70;2150.40;;;;;;5023401;28;20029;-73
2023/08/12 07:16:14;;;;;;;6.47;4.40;;;640.80;2124.80;;;;;;5019526;28;20068;-73
2023/08/12 07:18:40;;;;;;;5.05;4.07;;;665.60;2176.00;;;;;;5027924;28;20040;-72
2023/08/12 07:21:06;;;;;;;4.63;3.47;;;665.90;1996.80;;;;;;5024221;28;20116;-73
2023/08/12 07:23:32;;;;;;;4.43;3.47;;;666.00;1971.20;;;;;;5028901;28;20108;-71
2023/08/12 07:25:58;;;;;;;5.75;3.67;;;666.20;1996.80;;;;;;5023843;28;20026;-72
2023/08/12 07:28:23;;;;;;;7.65;3.83;;;666.40;1843.20;;;;;;5018624;28;20435;-74
2023/08/12 07:30:50;;;;;;;4.10;2.72;;;666.50;1792.00;;;;;;5018700;28;20049;-72
2023/08/12 07:33:15;;;;;;;6.15;3.17;;;691.30;1792.00;;;;;;5025035;28;20113;-74
2023/08/12 07:35:41;;;;;;;6.38;3.50;;;691.40;1740.80;;;;;;5022800;28;20065;-72
2023/08/12 07:38:07;;;;;;;6.43;3.17;;;691.60;1664.00;;;;;;5022638;28;20029;-74
2023/08/12 07:40:33;;;;;;;9.02;3.30;;;691.70;1689.60;;;;;;5025198;28;20021;-72
2023/08/12 07:42:59;;;;;;;7.78;3.42;;;691.90;1638.40;;;;;;5019497;28;20041;-72
2023/08/12 07:45:24;;;;;;;4.25;3.25;;;692.10;1638.40;;;;;;5023605;28;20391;-73
2023/08/12 07:47:50;;;;;;;4.47;2.80;;;716.80;1715.20;;;;;;5024526;28;20036;-74
2023/08/12 07:50:16;;;;;;;6.00;3.53;;;717.00;1587.20;;;;;;5020076;28;20025;-73
2023/08/12 07:52:42;;;;;;;4.80;2.95;;;717.20;1587.20;;;;;;5021718;28;20022;-71
2023/08/12 07:55:08;;;;;;;5.53;3.30;;;717.30;1484.80;;;;;;5029163;28;20025;-71
2023/08/12 07:57:34;;;;;;;4.95;3.20;;;717.50;1459.20;;;;;;5019591;28;20157;-73
2023/08/12 07:59:59;;;;;;;6.20;3.10;;;717.40;1536.00;;;;;;5024644;28;20025;-74
2023/08/12 08:02:25;;;;;;;6.00;3.30;;;717.60;1484.80;;;;;;5024932;28;20037;-74
2023/08/12 08:04:51;;;;;;;5.28;2.83;;;742.50;1510.40;;;;;;5015911;28;20476;-74
2023/08/12 08:07:17;;;;;;;5.32;3.33;;;742.60;1459.20;;;;;;5017001;28;20412;-72
2023/08/12 08:09:43;;;;;;;5.45;3.10;;;742.60;1459.20;;;;;;5024587;28;20460;-73
2023/08/12 08:12:10;;;;;;;5.03;2.70;;;742.70;1433.60;;;;;;5017156;28;20493;-72
2023/08/12 08:14:36;;;;;;;5.70;3.13;;;742.80;1433.60;;;;;;5023453;28;20029;-71
2023/08/12 08:17:03;;;;;;;3.63;2.85;;;742.80;1408.00;;;;;;5019364;28;20052;-72
2023/08/12 08:19:29;;;;;;;4.95;3.05;;;743.10;1408.00;;;;;;5021989;28;20445;-75
2023/08/12 08:21:54;;;;;;;6.97;3.22;;;743.30;1382.40;;;;;;5017662;28;20061;-71
2023/08/12 08:24:20;;;;;;;4.18;2.67;;;768.00;1382.40;;;;;;5030435;28;20038;-72
2023/08/12 08:26:46;;;;;;;4.50;2.88;;;768.20;1305.60;;;;;;5022110;28;20026;-73
2023/08/12 08:29:12;;;;;;;5.82;2.78;;;768.20;1254.40;;;;;;5023527;28;20022;-71
2023/08/12 08:31:39;;;;;;;4.00;2.70;;;743.20;1280.00;;;;;;5024893;28;20037;-71
2023/08/12 08:34:04;;;;;;;4.90;2.83;;;768.20;1280.00;;;;;;5020911;28;20117;-72
2023/08/12 08:36:31;;;;;;;5.18;2.60;;;768.60;1280.00;;;;;;5025210;28;20057;-73
2023/08/12 08:38:57;;;;;;;5.18;2.70;;;768.20;1254.40;;;;;;5021383;28;20387;-72
2023/08/12 08:41:24;;;;;;;4.85;2.40;;;768.50;1254.40;;;;;;5017851;28;20093;-72
2023/08/12 08:43:52;;;;;;;6.68;3.03;;;768.60;1280.00;;;;;;5026072;28;20042;-72
2023/08/12 08:46:18;;;;;;;3.55;2.38;;;768.90;1228.80;;;;;;5018340;28;20045;-73
2023/08/12 08:48:46;;;;;;;7.85;2.35;;;768.90;1228.80;;;;;;5016739;28;20112;-71
2023/08/12 08:51:12;;;;;;;4.07;2.83;;;793.70;1254.40;;;;;;5022611;28;20479;-72
2023/08/12 08:53:39;;;;;;;5.22;2.75;;;794.00;1254.40;;;;;;5022173;28;20029;-74
2023/08/12 08:56:11;;;;;;;6.75;2.70;;;794.00;1228.80;;;;;;5023812;28;20053;-72
2023/08/12 08:58:40;;;;;;;5.00;2.70;;;794.30;1254.40;;;;;;5019544;28;20526;-73
2023/08/12 09:01:08;;;;;;;4.82;2.50;;;794.20;1177.60;;;;;;5025825;28;20044;-74
2023/08/12 09:03:37;;;;;;;4.60;2.60;;;794.50;1152.00;;;;;;5022665;28;20045;-73
2023/08/12 09:06:03;;;;;;;6.07;2.78;;;794.50;1152.00;;;;;;5024660;28;20479;-73
2023/08/12 09:08:33;;;;;;;5.20;3.40;;;794.30;1152.00;;;;;;5021368;28;20395;-71
2023/08/12 09:11:01;;;;;;;3.45;2.50;;;794.40;1126.40;;;;;;5026329;28;20360;-75
2023/08/12 09:13:28;;;;;;;4.75;2.20;;;819.30;1075.20;;;;;;5016250;28;20025;-76
2023/08/12 09:15:54;;;;;;;3.83;2.85;;;819.30;1100.80;;;;;;5024901;28;20076;-73
2023/08/12 09:18:24;;;;;;;4.80;2.53;;;819.40;1152.00;;;;;;5020877;28;20100;-74
2023/08/12 09:20:50;;;;;;;5.20;2.58;;;819.50;1100.80;;;;;;5018277;28;20155;-73
2023/08/12 09:23:17;;;;;;;3.70;2.40;;;819.70;1075.20;;;;;;5023262;28;20036;-73
2023/08/12 09:25:44;;;;;;;3.85;2.70;;;819.70;1075.20;;;;;;5025060;28;20024;-72
2023/08/12 09:28:10;;;;;;;12.02;3.00;;;819.70;1100.80;;;;;;5022398;28;20104;-73
2023/08/12 09:30:37;;;;;;;4.55;2.85;;;819.50;1075.20;;;;;;5027404;28;20036;-73
2023/08/12 09:33:06;;;;;;;4.43;3.15;;;819.70;1126.40;;;;;;5022106;28;20460;-73
2023/08/12 09:35:43;;;;;;;3.67;2.40;;;819.60;1075.20;;;;;;5019098;28;20571;-74
2023/08/12 09:38:13;;;;;;;4.05;2.63;;;819.80;1049.60;;;;;;5023874;28;20065;-72
2023/08/12 09:40:39;;;;;;;4.28;2.50;;;819.90;1049.60;;;;;;5024126;28;20096;-73
2023/08/12 09:43:05;;;;;;;4.72;2.55;;;819.80;1049.60;;;;;;5025196;28;20038;-73
2023/08/12 09:45:32;;;;;;;4.40;2.58;;;820.00;1024.00;;;;;;5025603;28;20018;-73
2023/08/12 09:47:58;;;;;;;7.30;2.45;;;819.80;1024.00;;;;;;5026993;28;20030;-74
2023/08/12 09:50:25;;;;;;;4.35;3.05;;;819.80;1100.80;;;;;;5025454;28;20100;-73
2023/08/12 09:52:52;;;;;;;5.22;2.97;;;819.80;1126.40;;;;;;5022399;28;20067;-74
2023/08/12 09:55:20;;;;;;;5.18;2.92;;;819.90;1100.80;;;;;;5021134;28;20041;-71
2023/08/12 09:57:52;;;;;;;7.45;2.88;;;844.80;1075.20;;;;;;5025016;28;20029;-71
2023/08/12 10:00:19;;;;;;;4.75;2.95;;;844.90;1100.80;;;;;;5025557;28;20093;-71
2023/08/12 10:02:46;;;;;;;3.72;2.60;;;845.10;1075.20;;;;;;5026771;28;20033;-71
2023/08/12 10:05:15;;;;;;;3.65;2.53;;;845.00;1049.60;;;;;;5023487;28;20146;-71
2023/08/12 10:07:42;;;;;;;5.13;2.70;;;845.20;1075.20;;;;;;5024294;28;20050;-73
2023/08/12 10:10:09;;;;;;;5.60;2.50;;;844.90;1075.20;;;;;;5022228;28;20018;-73
2023/08/12 10:12:37;;;;;;;4.28;2.78;;;845.00;1075.20;;;;;;5023783;28;20045;-73
2023/08/12 10:15:04;;;;;;;4.10;2.70;;;845.20;998.40;;;;;;5027688;28;20033;-73
2023/08/12 10:17:31;;;;;;;4.75;2.80;;;845.40;998.40;;;;;;5024509;28;20022;-71
2023/08/12 10:20:00;;;;;;;3.63;2.65;;;845.50;1024.00;;;;;;5023799;28;20029;-71
2023/08/12 10:22:26;;;;;;;6.18;2.75;;;845.50;1024.00;;;;;;5020177;28;20068;-72
2023/08/12 10:24:52;;;;;;;7.68;2.72;;;845.60;1075.20;;;;;;5023014;28;20033;-73
2023/08/12 10:27:20;;;;;;;3.83;2.10;;;845.60;1024.00;;;;;;5022544;28;20083;-72
2023/08/12 10:29:46;;;;;;;6.72;2.60;;;845.70;972.80;;;;;;5020050;28;20029;-72
2023/08/12 10:32:14;;;;;;;7.82;2.63;;;845.70;998.40;;;;;;5018298;28;20501;-73
2023/08/12 10:34:39;;;;;;;5.38;3.47;;;870.40;998.40;;;;;;5018804;28;20431;-72
2023/08/12 10:37:06;;;;;;;7.18;2.53;;;845.70;998.40;;;;;;5021162;28;20040;-71
2023/08/12 10:39:33;;;;;;;6.22;3.08;;;870.40;972.80;;;;;;5026106;28;20121;-72
2023/08/12 10:41:59;;;;;;;6.30;2.40;;;870.40;1024.00;;;;;;5027671;28;20025;-72
2023/08/12 10:44:51;;;;;;;4.55;2.65;;;870.50;1049.60;;;;;;5026075;28;20040;-72
2023/08/12 10:47:16;;;;;;;5.22;2.42;;;870.50;998.40;;;;;;5019292;28;20026;-73
2023/08/12 10:49:53;;;;;;;6.00;2.75;;;870.50;972.80;;;;;;5020365;28;20037;-72
2023/08/12 10:52:32;;;;;;;4.38;2.65;;;870.50;947.20;;;;;;5019178;28;20084;-72
2023/08/12 10:55:20;;;;;;;3.88;2.50;;;870.60;947.20;;;;;;5016261;28;20030;-71
2023/08/12 10:57:46;;;;;;;7.57;3.08;;;870.90;972.80;;;;;;5018293;28;20022;-72
2023/08/12 11:00:29;;;;;;;9.77;2.80;;;870.90;972.80;;;;;;5019736;28;20030;-72
2023/08/12 11:02:56;;;;;;;5.30;2.38;;;870.70;972.80;;;;;;5019093;28;20176;-72
2023/08/12 11:05:23;;;;;;;3.13;2.50;;;845.10;1024.00;;;;;;5024337;28;20501;-73
2023/08/12 11:08:01;;;;;;;5.30;2.95;;;819.90;998.40;;;;;;5018251;28;20459;-73
2023/08/12 11:10:37;;;;;;;3.55;2.47;;;819.90;1024.00;;;;;;5023238;28;20034;-71
2023/08/12 11:13:10;;;;;;;6.65;3.45;;;819.80;998.40;;;;;;5032256;28;20025;-71
2023/08/12 11:15:47;;;;;;;4.50;3.00;;;819.90;1024.00;;;;;;5032607;28;20017;-72
2023/08/12 11:18:16;;;;;;;5.15;2.72;;;819.50;1049.60;;;;;;5029815;28;20026;-72
2023/08/12 11:20:42;;;;;;;4.63;2.50;;;819.20;1075.20;;;;;;5020414;28;20030;-71
2023/08/12 11:23:09;;;;;;;7.55;2.90;;;820.10;1049.60;;;;;;5021260;28;20461;-69
2023/08/12 11:25:37;;;;;;;4.32;2.47;;;845.40;1049.60;;;;;;5019848;28;20117;-72
2023/08/12 11:28:04;;;;;;;5.00;2.70;;;845.70;998.40;;;;;;5020977;28;20030;-70
2023/08/12 11:30:30;;;;;;;5.70;3.28;;;845.40;998.40;;;;;;5022695;28;20478;-70
2023/08/12 11:32:56;;;;;;;5.03;2.45;;;845.10;998.40;;;;;;5019235;28;20056;-70
2023/08/12 11:35:23;;;;;;;3.92;2.58;;;820.10;972.80;;;;;;5026689;28;20036;-72
2023/08/12 11:37:53;;;;;;;5.45;2.50;;;845.20;1024.00;;;;;;5024487;28;20088;-71
2023/08/12 11:40:19;;;;;;;3.58;2.30;;;845.70;998.40;;;;;;5027176;28;20029;-70
2023/08/12 11:42:47;;;;;;;3.85;2.53;;;845.70;1049.60;;;;;;5018862;28;20040;-71
2023/08/12 11:45:16;;;;;;;4.00;2.67;;;844.90;1024.00;;;;;;5025706;28;20079;-73
2023/08/12 11:47:42;;;;;;;10.27;2.83;;;845.20;1049.60;;;;;;5024146;28;20082;-73
2023/08/12 11:50:10;;;;;;;4.43;2.83;;;845.60;1024.00;;;;;;5020079;28;20068;-71
2023/08/12 11:52:37;;;;;;;4.10;2.42;;;820.10;998.40;;;;;;5020188;28;20511;-74
2023/08/12 11:55:04;;;;;;;5.43;2.63;;;819.60;1024.00;;;;;;5020311;28;20041;-72
2023/08/12 11:57:34;;;;;;;5.05;2.70;;;819.60;1024.00;;;;;;5024118;28;20047;-73
2023/08/12 12:00:02;;;;;;;4.93;2.60;;;845.10;1024.00;;;;;;5019442;28;20033;-72
2023/08/12 12:02:28;;;;;;;4.68;2.40;;;845.70;1024.00;;;;;;5018975;28;20040;-71
2023/08/12 12:04:53;;;;;;;7.55;3.00;;;870.50;1024.00;;;;;;5019837;28;20042;-73
2023/08/12 12:07:21;;;;;;;12.80;2.90;;;870.60;998.40;;;;;;5026985;28;20105;-71
2023/08/12 12:09:51;;;;;;;3.30;2.38;;;870.70;998.40;;;;;;5020657;28;20026;-73
2023/08/12 12:12:17;;;;;;;4.05;2.65;;;870.70;998.40;;;;;;5018812;28;20025;-74